createdAt,value
2023-03-06T00:00:53.276Z,7.18
2023-03-06T00:03:21.243Z,8.05
2023-03-06T00:05:48.509Z,7.80
2023-03-06T00:08:16.321Z,8.90
2023-03-06T00:10:43.409Z,8.35
2023-03-06T00:13:13.787Z,9.32
2023-03-06T00:15:41.097Z,7.30
2023-03-06T00:18:08.876Z,6.15
2023-03-06T00:20:36.676Z,7.72
2023-03-06T00:23:04.601Z,7.85
2023-03-06T00:25:31.861Z,6.85
2023-03-06T00:27:58.938Z,7.60
2023-03-06T00:30:26.097Z,7.53
2023-03-06T00:32:53.788Z,6.65
2023-03-06T00:35:21.417Z,5.95
2023-03-06T00:37:48.509Z,7.22
2023-03-06T00:40:19.913Z,5.97
2023-03-06T00:42:47.708Z,6.85
2023-03-06T00:45:15.437Z,5.97
2023-03-06T00:47:42.974Z,5.47
2023-03-06T00:50:11.087Z,5.43
2023-03-06T00:52:38.206Z,5.85
2023-03-06T00:55:06.399Z,6.57
2023-03-06T00:57:33.453Z,6.88
2023-03-06T01:00:00.549Z,5.93
2023-03-06T01:02:27.782Z,5.43
2023-03-06T01:04:54.997Z,5.47
2023-03-06T01:07:22.036Z,5.38
2023-03-06T01:09:50.849Z,7.10
2023-03-06T01:12:18.039Z,6.95
2023-03-06T01:14:45.558Z,4.70
2023-03-06T01:17:12.749Z,4.78
2023-03-06T01:19:39.909Z,4.07
2023-03-06T01:22:06.995Z,5.40
2023-03-06T01:24:34.055Z,5.10
2023-03-06T01:27:01.190Z,5.75
2023-03-06T01:29:28.264Z,4.88
2023-03-06T01:31:55.425Z,5.65
2023-03-06T01:34:22.672Z,4.25
2023-03-06T01:36:49.783Z,5.80
2023-03-06T01:39:16.841Z,5.97
2023-03-06T01:41:43.940Z,4.70
2023-03-06T01:44:13.921Z,3.97
2023-03-06T01:46:45.216Z,4.93
2023-03-06T01:49:29.641Z,4.95
2023-03-06T01:52:05.978Z,5.28
2023-03-06T01:54:36.529Z,5.47
2023-03-06T01:57:11.886Z,5.88
2023-03-06T01:59:40.837Z,5.18
2023-03-06T02:02:10.835Z,5.75
2023-03-06T02:04:40.458Z,4.85
2023-03-06T02:07:08.542Z,4.93
2023-03-06T02:09:37.884Z,6.68
2023-03-06T02:12:13.588Z,5.47
2023-03-06T02:14:42.389Z,4.32
2023-03-06T02:17:11.873Z,4.78
2023-03-06T02:20:00.746Z,4.00
2023-03-06T02:22:38.078Z,5.50
2023-03-06T02:25:16.003Z,5.93
2023-03-06T02:27:44.417Z,6.65
2023-03-06T02:30:16.805Z,5.13
2023-03-06T02:32:43.973Z,4.05
2023-03-06T02:35:22.710Z,5.22
2023-03-06T02:37:50.230Z,6.50
2023-03-06T02:40:21.021Z,6.43
2023-03-06T02:42:51.039Z,6.05
2023-03-06T02:45:30.528Z,5.30
2023-03-06T02:47:57.609Z,5.32
2023-03-06T02:50:24.826Z,6.45
2023-03-06T02:52:51.924Z,6.93
2023-03-06T02:55:19.119Z,6.25
2023-03-06T02:57:46.681Z,6.15
2023-03-06T03:00:15.064Z,6.35
2023-03-06T03:02:43.726Z,6.55
2023-03-06T03:05:10.892Z,6.00
2023-03-06T03:07:41.777Z,6.03
2023-03-06T03:10:10.745Z,7.28
2023-03-06T03:12:38.456Z,6.88
2023-03-06T03:15:06.413Z,6.80
2023-03-06T03:17:36.459Z,7.28
2023-03-06T03:20:04.888Z,7.93
2023-03-06T03:22:32.080Z,7.15
2023-03-06T03:24:59.167Z,7.15
2023-03-06T03:27:27.028Z,6.57
2023-03-06T03:29:57.690Z,7.43
2023-03-06T03:32:25.157Z,6.65
2023-03-06T03:34:52.848Z,6.65
2023-03-06T03:37:20.172Z,6.47
2023-03-06T03:39:47.398Z,6.57
2023-03-06T03:42:14.574Z,7.03
2023-03-06T03:44:41.732Z,7.18
2023-03-06T03:47:08.809Z,6.05
2023-03-06T03:49:36.421Z,5.82
2023-03-06T03:52:04.026Z,7.68
2023-03-06T03:54:33.820Z,6.63
2023-03-06T03:57:01.004Z,6.53
2023-03-06T03:59:32.979Z,5.90
2023-03-06T04:02:21.970Z,7.28
2023-03-06T04:04:57.596Z,5.75
2023-03-06T04:07:24.981Z,6.13
2023-03-06T04:09:52.148Z,6.93
2023-03-06T04:12:19.564Z,6.93
2023-03-06T04:14:47.633Z,5.72
2023-03-06T04:17:15.647Z,6.57
2023-03-06T04:19:43.178Z,6.00
2023-03-06T04:22:10.276Z,5.85
2023-03-06T04:24:39.388Z,5.18
2023-03-06T04:27:06.863Z,5.55
2023-03-06T04:29:34.234Z,5.68
2023-03-06T04:32:02.132Z,5.95
2023-03-06T04:34:29.418Z,5.20
2023-03-06T04:36:57.599Z,6.50
2023-03-06T04:39:24.818Z,5.72
2023-03-06T04:41:51.985Z,5.88
2023-03-06T04:44:19.146Z,5.60
2023-03-06T04:46:46.251Z,5.50
2023-03-06T04:49:13.360Z,5.30
2023-03-06T04:51:40.485Z,5.53
2023-03-06T04:54:07.598Z,5.50
2023-03-06T04:56:34.768Z,5.25
2023-03-06T04:59:04.396Z,5.38
2023-03-06T05:01:31.562Z,4.95
2023-03-06T05:03:58.679Z,6.13
2023-03-06T05:06:25.717Z,6.53
2023-03-06T05:08:52.830Z,7.55
2023-03-06T05:11:19.965Z,6.95
2023-03-06T05:13:47.055Z,7.57
2023-03-06T05:16:14.223Z,8.68
2023-03-06T05:18:41.333Z,7.00
2023-03-06T05:21:08.511Z,7.25
2023-03-06T05:23:38.645Z,7.63
2023-03-06T05:26:08.966Z,7.63
2023-03-06T05:28:36.211Z,8.05
2023-03-06T05:31:03.643Z,9.20
2023-03-06T05:33:33.219Z,8.00
2023-03-06T05:36:00.629Z,7.80
2023-03-06T05:38:28.474Z,7.72
2023-03-06T05:40:56.230Z,9.07
2023-03-06T05:43:23.763Z,6.57
2023-03-06T05:45:53.052Z,7.13
2023-03-06T05:48:20.242Z,8.13
2023-03-06T05:50:55.631Z,7.15
2023-03-06T05:53:22.753Z,7.72
2023-03-06T05:55:57.598Z,7.75
2023-03-06T05:58:24.726Z,7.05
2023-03-06T06:00:52.335Z,7.43
2023-03-06T06:03:20.481Z,6.88
2023-03-06T06:05:47.593Z,7.03
2023-03-06T06:08:14.861Z,6.72
2023-03-06T06:10:42.026Z,6.72
2023-03-06T06:13:09.187Z,6.53
2023-03-06T06:15:38.395Z,7.28
2023-03-06T06:18:05.637Z,6.40
2023-03-06T06:20:32.864Z,6.72
2023-03-06T06:23:00.174Z,6.38
2023-03-06T06:25:27.340Z,6.68
2023-03-06T06:27:57.930Z,6.03
2023-03-06T06:30:25.432Z,6.60
2023-03-06T06:32:52.605Z,6.40
2023-03-06T06:35:19.736Z,5.97
2023-03-06T06:37:46.865Z,5.13
2023-03-06T06:40:14.210Z,5.07
2023-03-06T06:42:41.837Z,5.22
2023-03-06T06:45:11.078Z,5.70
2023-03-06T06:47:41.518Z,5.13
2023-03-06T06:50:13.183Z,5.53
2023-03-06T06:52:40.591Z,4.50
2023-03-06T06:55:08.287Z,5.35
2023-03-06T06:57:35.346Z,4.93
2023-03-06T07:00:02.707Z,5.90
2023-03-06T07:02:30.135Z,5.80
2023-03-06T07:05:04.184Z,5.38
2023-03-06T07:07:35.316Z,5.72
2023-03-06T07:10:07.224Z,6.20
2023-03-06T07:12:35.331Z,5.68
2023-03-06T07:15:03.323Z,5.85
2023-03-06T07:17:30.522Z,6.15
2023-03-06T07:19:57.623Z,5.70
2023-03-06T07:22:24.786Z,5.97
2023-03-06T07:24:51.966Z,6.38
2023-03-06T07:27:19.362Z,6.70
2023-03-06T07:29:46.744Z,5.93
2023-03-06T07:32:13.900Z,5.60
2023-03-06T07:34:41.055Z,5.60
2023-03-06T07:37:08.260Z,6.22
2023-03-06T07:39:35.590Z,6.35
2023-03-06T07:42:02.847Z,6.40
2023-03-06T07:44:30.105Z,6.10
2023-03-06T07:46:57.189Z,6.35
2023-03-06T07:49:24.290Z,6.40
2023-03-06T07:51:51.345Z,6.38
2023-03-06T07:54:18.455Z,6.95
2023-03-06T07:56:45.679Z,6.65
2023-03-06T07:59:12.745Z,5.80
2023-03-06T08:01:40.422Z,6.90
2023-03-06T08:04:07.649Z,6.47
2023-03-06T08:06:34.746Z,6.03
2023-03-06T08:09:01.830Z,6.13
2023-03-06T08:11:30.857Z,5.85
2023-03-06T08:13:58.657Z,6.20
2023-03-06T08:16:28.419Z,6.55
2023-03-06T08:18:56.322Z,5.90
2023-03-06T08:21:26.018Z,5.95
2023-03-06T08:23:53.479Z,6.30
2023-03-06T08:26:24.266Z,6.25
2023-03-06T08:28:52.711Z,7.03
2023-03-06T08:31:31.727Z,5.85
2023-03-06T08:34:01.587Z,6.30
2023-03-06T08:36:29.138Z,7.03
2023-03-06T08:38:56.499Z,6.07
2023-03-06T08:41:23.638Z,6.20
2023-03-06T08:43:51.554Z,6.57
2023-03-06T08:46:19.464Z,6.43
2023-03-06T08:48:49.814Z,6.68
2023-03-06T08:51:18.597Z,6.68
2023-03-06T08:53:46.589Z,7.30
2023-03-06T08:56:18.360Z,5.45
2023-03-06T08:58:45.654Z,6.43
2023-03-06T09:01:21.499Z,6.15
2023-03-06T09:03:49.271Z,8.05
2023-03-06T09:06:17.659Z,6.95
2023-03-06T09:08:44.906Z,6.38
2023-03-06T09:11:16.027Z,6.22
2023-03-06T09:13:43.832Z,7.38
2023-03-06T09:16:11.891Z,6.63
2023-03-06T09:18:39.100Z,7.25
2023-03-06T09:21:08.225Z,6.53
2023-03-06T09:23:36.196Z,7.25
2023-03-06T09:26:03.780Z,6.78
2023-03-06T09:28:31.266Z,6.28
2023-03-06T09:30:58.767Z,6.90
2023-03-06T09:33:27.027Z,6.63
2023-03-06T09:35:56.353Z,7.20
2023-03-06T09:38:26.603Z,7.32
2023-03-06T09:41:06.127Z,6.68
2023-03-06T09:43:39.361Z,7.18
2023-03-06T10:17:22.415Z,7.60
2023-03-06T10:19:50.011Z,7.38
2023-03-06T10:22:30.799Z,7.43
2023-03-06T10:25:14.282Z,7.20
2023-03-06T10:27:44.244Z,7.70
2023-03-06T10:30:17.003Z,7.40
2023-03-06T10:32:58.645Z,8.00
2023-03-06T10:35:31.620Z,7.32
2023-03-06T10:38:24.623Z,6.35
2023-03-06T10:41:13.380Z,8.70
2023-03-06T10:44:02.903Z,7.78
2023-03-06T10:46:34.521Z,8.35
2023-03-06T10:49:06.386Z,8.30
2023-03-06T10:51:35.657Z,8.57
2023-03-06T10:54:19.621Z,9.23
2023-03-06T10:56:47.751Z,9.52
2023-03-06T10:59:17.891Z,8.73
2023-03-06T11:01:52.637Z,9.52
2023-03-06T11:04:23.593Z,8.13
2023-03-06T11:07:22.795Z,8.00
2023-03-06T11:09:58.799Z,8.18
2023-03-06T11:12:32.390Z,8.52
2023-03-06T11:15:10.168Z,8.48
2023-03-06T11:17:59.477Z,8.70
2023-03-06T11:20:50.962Z,8.93
2023-03-06T11:23:45.805Z,8.00
2023-03-06T11:26:20.240Z,9.65
2023-03-06T11:29:19.982Z,8.68
2023-03-06T11:31:53.222Z,9.77
2023-03-06T11:34:39.617Z,10.45
2023-03-06T11:37:31.092Z,9.27
2023-03-06T11:40:05.954Z,9.40
2023-03-06T11:42:40.971Z,9.82
2023-03-06T11:45:24.204Z,9.05
2023-03-06T11:48:03.103Z,8.80
2023-03-06T11:50:38.765Z,9.80
2023-03-06T11:53:11.057Z,9.33
2023-03-06T11:55:56.009Z,9.77
2023-03-06T11:58:57.189Z,9.77
2023-03-06T12:01:57.744Z,9.40
2023-03-06T12:04:53.732Z,10.15
2023-03-06T12:07:34.125Z,9.57
2023-03-06T12:10:38.714Z,9.77
2023-03-06T12:16:05.756Z,10.43
2023-03-06T12:18:41.970Z,10.65
2023-03-06T12:21:27.194Z,10.75
2023-03-06T12:24:00.488Z,10.60
2023-03-06T12:27:07.614Z,11.05
2023-03-06T12:29:37.257Z,9.52
2023-03-06T12:32:21.438Z,10.55
2023-03-06T12:35:04.081Z,10.18
2023-03-06T12:38:18.602Z,11.07
2023-03-06T12:41:14.991Z,9.77
2023-03-06T12:43:54.748Z,10.23
2023-03-06T12:46:23.733Z,11.82
2023-03-06T12:49:09.369Z,11.07
2023-03-06T12:51:37.834Z,11.20
2023-03-06T12:54:05.417Z,10.30
2023-03-06T12:56:34.736Z,10.10
2023-03-06T12:59:06.070Z,10.13
2023-03-06T13:01:33.153Z,10.63
2023-03-06T13:04:20.418Z,10.95
2023-03-06T13:07:04.323Z,9.90
2023-03-06T13:10:07.209Z,8.23
2023-03-06T13:12:55.784Z,8.93
2023-03-06T13:15:39.727Z,9.43
2023-03-06T13:18:21.982Z,8.48
2023-03-06T13:20:50.367Z,9.20
2023-03-06T13:23:29.771Z,9.68
2023-03-06T13:25:59.842Z,9.18
2023-03-06T13:28:40.398Z,9.82
2023-03-06T13:31:18.209Z,8.95
2023-03-06T13:33:55.303Z,7.72
2023-03-06T13:36:39.604Z,7.97
2023-03-06T13:39:11.556Z,7.20
2023-03-06T13:41:42.812Z,7.22
2023-03-06T13:44:25.269Z,7.80
2023-03-06T13:47:39.752Z,7.32
2023-03-06T13:50:37.965Z,7.78
2023-03-06T13:53:35.428Z,7.63
2023-03-06T13:56:43.816Z,7.13
2023-03-06T13:59:22.942Z,6.90
2023-03-06T14:02:10.471Z,7.30
2023-03-06T14:04:57.877Z,6.88
2023-03-06T14:07:33.650Z,6.40
2023-03-06T14:10:25.896Z,6.55
2023-03-06T14:13:01.146Z,7.15
2023-03-06T14:15:42.396Z,6.97
2023-03-06T14:18:33.015Z,6.68
2023-03-06T14:21:00.134Z,7.45
2023-03-06T14:23:42.763Z,6.03
2023-03-06T14:26:17.656Z,7.15
2023-03-06T14:29:05.056Z,6.50
2023-03-06T14:31:41.034Z,6.63
2023-03-06T14:34:18.349Z,6.10
2023-03-06T14:36:49.284Z,6.32
2023-03-06T14:39:27.618Z,5.85
2023-03-06T14:42:25.605Z,6.35
2023-03-06T14:45:16.488Z,7.63
2023-03-06T14:47:49.321Z,6.47
2023-03-06T14:50:24.277Z,6.82
2023-03-06T14:52:56.226Z,6.50
2023-03-06T14:55:26.160Z,6.50
2023-03-06T14:57:58.498Z,6.35
2023-03-06T15:00:33.459Z,7.35
2023-03-06T15:03:00.913Z,6.55
2023-03-06T15:05:30.929Z,6.35
2023-03-06T15:08:02.674Z,7.00
2023-03-06T15:10:32.603Z,6.45
2023-03-06T15:13:11.479Z,6.65
2023-03-06T15:15:38.813Z,6.20
2023-03-06T15:18:28.918Z,7.32
2023-03-06T15:21:10.884Z,5.90
2023-03-06T15:23:44.283Z,6.00
2023-03-06T15:26:31.548Z,6.57
2023-03-06T15:29:11.135Z,7.03
2023-03-06T15:31:43.816Z,6.05
2023-03-06T15:38:02.968Z,7.20
2023-03-06T15:40:32.074Z,6.82
2023-03-06T15:42:59.503Z,6.97
2023-03-06T15:45:29.559Z,6.32
2023-03-06T15:47:56.687Z,6.38
2023-03-06T15:50:29.443Z,7.10
2023-03-06T15:52:56.709Z,6.70
2023-03-06T15:55:26.252Z,7.45
2023-03-06T15:57:59.926Z,7.50
2023-03-06T16:00:34.340Z,7.10
2023-03-06T16:03:03.036Z,7.70
2023-03-06T16:05:30.499Z,6.90
2023-03-06T16:07:57.868Z,6.88
2023-03-06T16:10:28.027Z,6.68
2023-03-06T16:12:59.970Z,6.68
2023-03-06T16:15:31.055Z,7.60
2023-03-06T16:17:59.044Z,6.60
2023-03-06T16:20:29.958Z,7.13
2023-03-06T16:22:57.238Z,7.50
2023-03-06T16:25:28.303Z,7.38
2023-03-06T16:28:01.185Z,6.47
2023-03-06T16:30:33.521Z,7.72
2023-03-06T16:33:01.944Z,7.55
2023-03-06T16:35:29.108Z,7.05
2023-03-06T16:37:56.271Z,6.68
2023-03-06T16:40:27.472Z,7.07
2023-03-06T16:42:55.346Z,7.55
2023-03-06T16:45:23.519Z,7.20
2023-03-06T16:47:51.133Z,7.57
2023-03-06T16:50:33.328Z,8.27
2023-03-06T16:53:00.409Z,7.78
2023-03-06T16:55:27.862Z,8.35
2023-03-06T16:57:55.097Z,7.50
2023-03-06T17:00:25.001Z,8.57
2023-03-06T17:02:52.697Z,8.65
2023-03-06T17:05:20.161Z,8.60
2023-03-06T17:07:47.582Z,8.95
2023-03-06T17:10:16.701Z,9.68
2023-03-06T17:12:43.821Z,8.77
2023-03-06T17:15:11.992Z,8.70
2023-03-06T17:17:39.104Z,9.75
2023-03-06T17:20:12.695Z,10.30
2023-03-06T17:22:40.685Z,10.25
2023-03-06T17:25:08.917Z,9.20
2023-03-06T17:27:36.536Z,8.38
2023-03-06T17:30:05.353Z,8.23
2023-03-06T17:32:33.014Z,7.68
2023-03-06T17:35:00.180Z,7.78
2023-03-06T17:37:27.338Z,7.05
2023-03-06T17:39:54.520Z,7.18
2023-03-06T17:42:21.737Z,6.88
2023-03-06T17:44:48.801Z,6.93
2023-03-06T17:47:15.890Z,7.72
2023-03-06T17:49:43.159Z,7.88
2023-03-06T17:52:10.411Z,6.28
2023-03-06T17:54:37.642Z,11.07
2023-03-06T17:57:05.849Z,9.15
2023-03-06T17:59:36.621Z,7.90
2023-03-06T18:02:06.372Z,8.90
2023-03-06T18:04:33.674Z,7.03
2023-03-06T18:07:00.811Z,7.95
2023-03-06T18:09:27.906Z,7.18
2023-03-06T18:11:54.994Z,8.10
2023-03-06T18:14:22.165Z,7.90
2023-03-06T18:16:49.431Z,7.57
2023-03-06T18:19:17.844Z,6.30
2023-03-06T18:21:47.347Z,6.82
2023-03-06T18:24:14.567Z,7.38
2023-03-06T18:26:42.576Z,7.25
2023-03-06T18:29:09.725Z,6.78
2023-03-06T18:31:38.785Z,7.07
2023-03-06T18:34:10.092Z,7.60
2023-03-06T18:36:37.572Z,7.85
2023-03-06T18:39:08.755Z,8.85
2023-03-06T18:41:36.479Z,7.95
2023-03-06T18:44:04.378Z,7.20
2023-03-06T18:46:35.278Z,7.43
2023-03-06T18:49:02.904Z,7.30
2023-03-06T18:51:30.217Z,7.38
2023-03-06T18:53:58.525Z,7.20
2023-03-06T18:56:26.134Z,6.90
2023-03-06T18:58:54.053Z,7.22
2023-03-06T19:01:22.810Z,7.60
2023-03-06T19:03:50.039Z,7.55
2023-03-06T19:06:18.281Z,8.15
2023-03-06T19:08:45.381Z,8.60
2023-03-06T19:11:17.282Z,8.45
2023-03-06T19:13:44.888Z,8.60
2023-03-06T19:16:20.891Z,8.57
2023-03-06T19:18:48.907Z,9.98
2023-03-06T19:21:18.826Z,9.35
2023-03-06T19:23:46.711Z,9.27
2023-03-06T19:26:14.466Z,8.93
2023-03-06T19:28:43.397Z,9.00
2023-03-06T19:31:19.504Z,8.35
2023-03-06T19:33:48.893Z,8.38
2023-03-06T19:36:18.530Z,7.55
2023-03-06T19:38:50.441Z,8.02
2023-03-06T19:41:17.939Z,7.45
2023-03-06T19:43:45.064Z,7.95
2023-03-06T19:46:13.528Z,8.40
2023-03-06T19:48:41.814Z,7.80
2023-03-06T19:51:09.001Z,7.97
2023-03-06T19:53:36.786Z,7.82
2023-03-06T19:56:18.410Z,7.95
2023-03-06T19:58:45.754Z,7.40
2023-03-06T20:01:15.340Z,7.28
2023-03-06T20:03:42.945Z,8.10
2023-03-06T20:06:18.720Z,7.78
2023-03-06T20:08:47.206Z,6.87
2023-03-06T20:11:22.710Z,6.93
2023-03-06T20:13:49.954Z,6.40
2023-03-06T20:16:18.199Z,7.90
2023-03-06T20:18:45.876Z,7.82
2023-03-06T20:21:13.851Z,7.15
2023-03-06T20:23:41.507Z,8.00
2023-03-06T20:26:12.265Z,8.05
2023-03-06T20:28:40.550Z,7.93
2023-03-06T20:31:11.287Z,7.10
2023-03-06T20:33:38.506Z,7.57
2023-03-06T20:36:12.361Z,7.70
2023-03-06T20:38:39.584Z,7.38
2023-03-06T20:41:08.947Z,7.93
2023-03-06T20:43:36.055Z,7.80
2023-03-06T20:46:04.225Z,8.43
2023-03-06T20:48:31.626Z,8.07
2023-03-06T20:51:00.477Z,8.50
2023-03-06T20:53:27.588Z,8.35
2023-03-06T20:55:54.783Z,7.75
2023-03-06T20:58:23.520Z,8.68
2023-03-06T21:00:50.638Z,7.93
2023-03-06T21:03:17.760Z,6.95
2023-03-06T21:05:48.093Z,6.03
2023-03-06T21:08:16.040Z,8.63
2023-03-06T21:10:45.009Z,8.07
2023-03-06T21:13:12.187Z,7.15
2023-03-06T21:15:40.787Z,7.07
2023-03-06T21:18:09.048Z,7.72
2023-03-06T21:20:39.701Z,7.57
2023-03-06T21:23:07.337Z,8.13
2023-03-06T21:25:34.692Z,9.05
2023-03-06T21:28:01.878Z,7.97
2023-03-06T21:30:29.489Z,8.07
2023-03-06T21:32:56.877Z,7.15
2023-03-06T21:35:24.054Z,7.38
2023-03-06T21:37:51.799Z,7.55
2023-03-06T21:40:19.133Z,6.10
2023-03-06T21:42:46.203Z,6.68
2023-03-06T21:45:13.332Z,7.10
2023-03-06T21:47:41.145Z,6.70
2023-03-06T21:50:10.849Z,6.60
2023-03-06T21:52:38.030Z,6.55
2023-03-06T21:55:06.139Z,6.57
2023-03-06T21:57:33.264Z,6.93
2023-03-06T22:00:00.481Z,5.88
2023-03-06T22:02:27.664Z,6.22
2023-03-06T22:04:54.876Z,6.43
2023-03-06T22:07:23.061Z,7.53
2023-03-06T22:09:53.505Z,6.82
2023-03-06T22:12:21.489Z,7.20
2023-03-06T22:14:48.576Z,7.63
2023-03-06T22:17:15.783Z,6.82
2023-03-06T22:19:42.838Z,7.57
2023-03-06T22:22:10.779Z,8.63
2023-03-06T22:24:37.986Z,7.97
2023-03-06T22:27:05.388Z,8.55
2023-03-06T22:29:32.470Z,8.48
2023-03-06T22:31:59.730Z,8.77
2023-03-06T22:34:26.898Z,9.18
2023-03-06T22:36:54.065Z,8.88
2023-03-06T22:39:21.268Z,9.07
2023-03-06T22:41:48.589Z,9.48
2023-03-06T22:44:18.536Z,9.32
2023-03-06T22:46:46.383Z,9.93
2023-03-06T22:49:14.904Z,9.57
2023-03-06T22:51:41.929Z,9.82
2023-03-06T22:54:09.857Z,9.23
2023-03-06T22:56:37.006Z,9.93
2023-03-06T22:59:04.596Z,10.10
2023-03-06T23:01:34.114Z,10.38
2023-03-06T23:04:04.034Z,10.52
2023-03-06T23:06:33.682Z,10.43
2023-03-06T23:09:22.533Z,10.88
2023-03-06T23:12:09.309Z,10.52
2023-03-06T23:14:55.142Z,9.80
2023-03-06T23:17:40.917Z,10.32
2023-03-06T23:20:26.751Z,9.45
2023-03-06T23:23:12.717Z,9.35
2023-03-06T23:25:43.667Z,9.25
2023-03-06T23:28:11.536Z,9.40
2023-03-06T23:30:40.219Z,9.63
2023-03-06T23:33:07.937Z,9.48
2023-03-06T23:35:36.156Z,9.80
2023-03-06T23:38:03.625Z,9.15
2023-03-06T23:40:33.708Z,10.77
2023-03-06T23:43:01.359Z,9.57
2023-03-06T23:45:28.509Z,9.25
2023-03-06T23:47:55.909Z,10.07
2023-03-06T23:50:24.390Z,8.65
2023-03-06T23:52:55.660Z,10.25
2023-03-06T23:55:22.898Z,10.85
2023-03-06T23:57:49.996Z,11.02
